sensor_id;sensor_type;location;lat;lon;timestamp;P1;durP1;ratioP1;P2;durP2;ratioP2
17915;SDS011;9083;49.156;8.982;2023-08-06T00:01:05;1.90;;;1.80;;
17915;SDS011;9083;49.156;8.982;2023-08-06T00:03:31;3.57;;;1.90;;
17915;SDS011;9083;49.156;8.982;2023-08-06T00:05:58;2.30;;;1.80;;
17915;SDS011;9083;49.156;8.982;2023-08-06T00:08:24;3.13;;;2.00;;
17915;SDS011;9083;49.156;8.982;2023-08-06T00:10:51;2.10;;;2.00;;
17915;SDS011;9083;49.156;8.982;2023-08-06T00:13:18;2.70;;;2.50;;
17915;SDS011;9083;49.156;8.982;2023-08-06T00:15:45;1.80;;;1.70;;
17915;SDS011;9083;49.156;8.982;2023-08-06T00:18:14;2.57;;;1.90;;
17915;SDS011;9083;49.156;8.982;2023-08-06T00:20:40;2.00;;;1.90;;
17915;SDS011;9083;49.156;8.982;2023-08-06T00:23:07;1.70;;;1.67;;
17915;SDS011;9083;49.156;8.982;2023-08-06T00:25:33;1.90;;;1.80;;
17915;SDS011;9083;49.156;8.982;2023-08-06T00:28:00;3.20;;;2.00;;
17915;SDS011;9083;49.156;8.982;2023-08-06T00:30:28;2.27;;;2.07;;
17915;SDS011;9083;49.156;8.982;2023-08-06T00:32:54;2.10;;;1.90;;
17915;SDS011;9083;49.156;8.982;2023-08-06T00:35:20;1.90;;;1.80;;
17915;SDS011;9083;49.156;8.982;2023-08-06T00:37:47;2.43;;;2.10;;
17915;SDS011;9083;49.156;8.982;2023-08-06T00:40:13;2.23;;;2.03;;
17915;SDS011;9083;49.156;8.982;2023-08-06T00:42:40;3.07;;;2.03;;
17915;SDS011;9083;49.156;8.982;2023-08-06T00:45:06;2.27;;;2.07;;
17915;SDS011;9083;49.156;8.982;2023-08-06T00:47:34;4.37;;;2.30;;
17915;SDS011;9083;49.156;8.982;2023-08-06T00:50:01;3.23;;;2.10;;
17915;SDS011;9083;49.156;8.982;2023-08-06T00:52:27;3.50;;;2.30;;
17915;SDS011;9083;49.156;8.982;2023-08-06T00:54:54;3.73;;;2.47;;
17915;SDS011;9083;49.156;8.982;2023-08-06T00:57:20;4.97;;;2.50;;
17915;SDS011;9083;49.156;8.982;2023-08-06T00:59:49;3.13;;;2.30;;
17915;SDS011;9083;49.156;8.982;2023-08-06T01:02:15;2.90;;;2.20;;
17915;SDS011;9083;49.156;8.982;2023-08-06T01:04:43;4.60;;;2.10;;
17915;SDS011;9083;49.156;8.982;2023-08-06T01:07:12;2.13;;;2.00;;
17915;SDS011;9083;49.156;8.982;2023-08-06T01:09:42;2.87;;;2.50;;
17915;SDS011;9083;49.156;8.982;2023-08-06T01:12:13;4.00;;;2.10;;
17915;SDS011;9083;49.156;8.982;2023-08-06T01:14:45;3.53;;;2.30;;
17915;SDS011;9083;49.156;8.982;2023-08-06T01:17:14;2.20;;;2.10;;
17915;SDS011;9083;49.156;8.982;2023-08-06T01:19:40;4.30;;;2.20;;
17915;SDS011;9083;49.156;8.982;2023-08-06T01:22:08;3.13;;;2.17;;
17915;SDS011;9083;49.156;8.982;2023-08-06T01:24:34;2.87;;;2.10;;
17915;SDS011;9083;49.156;8.982;2023-08-06T01:27:03;2.77;;;2.53;;
17915;SDS011;9083;49.156;8.982;2023-08-06T01:29:31;2.63;;;2.20;;
17915;SDS011;9083;49.156;8.982;2023-08-06T01:31:59;2.37;;;2.17;;
17915;SDS011;9083;49.156;8.982;2023-08-06T01:34:28;4.17;;;2.47;;
17915;SDS011;9083;49.156;8.982;2023-08-06T01:36:55;2.27;;;2.07;;
17915;SDS011;9083;49.156;8.982;2023-08-06T01:39:23;2.50;;;2.30;;
17915;SDS011;9083;49.156;8.982;2023-08-06T01:41:49;2.27;;;2.07;;
17915;SDS011;9083;49.156;8.982;2023-08-06T01:44:15;2.67;;;2.43;;
17915;SDS011;9083;49.156;8.982;2023-08-06T01:46:42;3.83;;;2.33;;
17915;SDS011;9083;49.156;8.982;2023-08-06T01:49:08;2.13;;;2.03;;
17915;SDS011;9083;49.156;8.982;2023-08-06T01:51:35;3.13;;;2.17;;
17915;SDS011;9083;49.156;8.982;2023-08-06T01:54:01;2.93;;;2.50;;
17915;SDS011;9083;49.156;8.982;2023-08-06T01:56:29;3.07;;;2.47;;
17915;SDS011;9083;49.156;8.982;2023-08-06T01:58:56;4.80;;;3.10;;
17915;SDS011;9083;49.156;8.982;2023-08-06T02:01:22;3.57;;;2.40;;
17915;SDS011;9083;49.156;8.982;2023-08-06T02:03:49;4.47;;;2.53;;
17915;SDS011;9083;49.156;8.982;2023-08-06T02:06:15;3.83;;;2.53;;
17915;SDS011;9083;49.156;8.982;2023-08-06T02:08:41;2.63;;;2.43;;
17915;SDS011;9083;49.156;8.982;2023-08-06T02:11:08;2.33;;;2.10;;
17915;SDS011;9083;49.156;8.982;2023-08-06T02:13:36;2.20;;;1.50;;
17915;SDS011;9083;49.156;8.982;2023-08-06T02:16:02;2.47;;;2.20;;
17915;SDS011;9083;49.156;8.982;2023-08-06T02:18:29;2.47;;;2.27;;
17915;SDS011;9083;49.156;8.982;2023-08-06T02:20:55;4.90;;;1.80;;
17915;SDS011;9083;49.156;8.982;2023-08-06T02:23:22;3.73;;;1.93;;
17915;SDS011;9083;49.156;8.982;2023-08-06T02:25:56;2.30;;;2.17;;
17915;SDS011;9083;49.156;8.982;2023-08-06T02:28:22;4.47;;;2.00;;
17915;SDS011;9083;49.156;8.982;2023-08-06T02:30:50;2.10;;;1.90;;
17915;SDS011;9083;49.156;8.982;2023-08-06T02:33:17;1.90;;;1.80;;
17915;SDS011;9083;49.156;8.982;2023-08-06T02:35:43;2.67;;;2.00;;
17915;SDS011;9083;49.156;8.982;2023-08-06T02:38:10;2.17;;;2.00;;
17915;SDS011;9083;49.156;8.982;2023-08-06T02:40:36;2.23;;;1.97;;
17915;SDS011;9083;49.156;8.982;2023-08-06T02:43:02;2.10;;;1.87;;
17915;SDS011;9083;49.156;8.982;2023-08-06T02:45:29;2.80;;;2.07;;
17915;SDS011;9083;49.156;8.982;2023-08-06T02:47:57;4.80;;;1.97;;
17915;SDS011;9083;49.156;8.982;2023-08-06T02:50:23;1.87;;;1.77;;
17915;SDS011;9083;49.156;8.982;2023-08-06T02:52:49;1.77;;;1.67;;
17915;SDS011;9083;49.156;8.982;2023-08-06T02:55:16;2.93;;;2.10;;
17915;SDS011;9083;49.156;8.982;2023-08-06T02:57:42;2.00;;;1.90;;
17915;SDS011;9083;49.156;8.982;2023-08-06T03:00:09;1.90;;;1.80;;
17915;SDS011;9083;49.156;8.982;2023-08-06T03:02:36;2.40;;;2.20;;
17915;SDS011;9083;49.156;8.982;2023-08-06T03:05:04;1.87;;;1.77;;
17915;SDS011;9083;49.156;8.982;2023-08-06T03:07:31;5.53;;;2.10;;
17915;SDS011;9083;49.156;8.982;2023-08-06T03:10:01;1.73;;;1.60;;
17915;SDS011;9083;49.156;8.982;2023-08-06T03:12:27;3.20;;;1.90;;
17915;SDS011;9083;49.156;8.982;2023-08-06T03:14:54;2.90;;;2.27;;
17915;SDS011;9083;49.156;8.982;2023-08-06T03:17:20;1.80;;;1.70;;
17915;SDS011;9083;49.156;8.982;2023-08-06T03:19:47;2.10;;;1.60;;
17915;SDS011;9083;49.156;8.982;2023-08-06T03:22:14;3.20;;;2.00;;
17915;SDS011;9083;49.156;8.982;2023-08-06T03:24:41;6.07;;;2.07;;
17915;SDS011;9083;49.156;8.982;2023-08-06T03:27:07;1.50;;;1.43;;
17915;SDS011;9083;49.156;8.982;2023-08-06T03:29:33;2.10;;;1.63;;
17915;SDS011;9083;49.156;8.982;2023-08-06T03:32:00;2.10;;;1.73;;
17915;SDS011;9083;49.156;8.982;2023-08-06T03:34:26;2.50;;;1.60;;
17915;SDS011;9083;49.156;8.982;2023-08-06T03:36:53;5.57;;;1.50;;
17915;SDS011;9083;49.156;8.982;2023-08-06T03:39:20;4.33;;;1.67;;
17915;SDS011;9083;49.156;8.982;2023-08-06T03:41:47;2.50;;;1.70;;
17915;SDS011;9083;49.156;8.982;2023-08-06T03:44:13;1.77;;;1.40;;
17915;SDS011;9083;49.156;8.982;2023-08-06T03:46:40;1.80;;;1.47;;
17915;SDS011;9083;49.156;8.982;2023-08-06T03:49:06;1.53;;;1.43;;
17915;SDS011;9083;49.156;8.982;2023-08-06T03:51:32;4.50;;;1.60;;
17915;SDS011;9083;49.156;8.982;2023-08-06T03:53:59;2.77;;;1.20;;
17915;SDS011;9083;49.156;8.982;2023-08-06T03:56:27;1.63;;;1.40;;
17915;SDS011;9083;49.156;8.982;2023-08-06T03:58:53;4.30;;;1.27;;
17915;SDS011;9083;49.156;8.982;2023-08-06T04:01:19;1.70;;;1.53;;
17915;SDS011;9083;49.156;8.982;2023-08-06T04:03:46;2.20;;;1.80;;
17915;SDS011;9083;49.156;8.982;2023-08-06T04:06:12;1.40;;;1.30;;
17915;SDS011;9083;49.156;8.982;2023-08-06T04:08:39;5.00;;;1.50;;
17915;SDS011;9083;49.156;8.982;2023-08-06T04:11:05;3.37;;;1.73;;
17915;SDS011;9083;49.156;8.982;2023-08-06T04:13:33;2.63;;;1.80;;
17915;SDS011;9083;49.156;8.982;2023-08-06T04:16:00;1.80;;;1.23;;
17915;SDS011;9083;49.156;8.982;2023-08-06T04:18:27;1.77;;;1.40;;
17915;SDS011;9083;49.156;8.982;2023-08-06T04:20:53;2.03;;;1.00;;
17915;SDS011;9083;49.156;8.982;2023-08-06T04:23:20;2.80;;;1.30;;
17915;SDS011;9083;49.156;8.982;2023-08-06T04:25:46;5.07;;;1.73;;
17915;SDS011;9083;49.156;8.982;2023-08-06T04:28:13;3.33;;;1.37;;
17915;SDS011;9083;49.156;8.982;2023-08-06T04:30:41;3.20;;;1.10;;
17915;SDS011;9083;49.156;8.982;2023-08-06T04:33:07;1.60;;;1.10;;
17915;SDS011;9083;49.156;8.982;2023-08-06T04:35:33;2.60;;;1.30;;
17915;SDS011;9083;49.156;8.982;2023-08-06T04:38:00;2.00;;;1.00;;
17915;SDS011;9083;49.156;8.982;2023-08-06T04:40:26;1.80;;;0.90;;
17915;SDS011;9083;49.156;8.982;2023-08-06T04:42:53;1.30;;;1.20;;
17915;SDS011;9083;49.156;8.982;2023-08-06T04:45:19;1.70;;;1.30;;
17915;SDS011;9083;49.156;8.982;2023-08-06T04:47:47;1.30;;;1.20;;
17915;SDS011;9083;49.156;8.982;2023-08-06T04:50:13;2.33;;;1.00;;
17915;SDS011;9083;49.156;8.982;2023-08-06T04:52:40;2.90;;;1.03;;
17915;SDS011;9083;49.156;8.982;2023-08-06T04:55:06;2.63;;;1.17;;
17915;SDS011;9083;49.156;8.982;2023-08-06T04:57:33;3.47;;;1.13;;
17915;SDS011;9083;49.156;8.982;2023-08-06T04:59:59;1.10;;;1.00;;
17915;SDS011;9083;49.156;8.982;2023-08-06T05:02:25;3.23;;;1.20;;
17915;SDS011;9083;49.156;8.982;2023-08-06T05:04:53;1.50;;;0.80;;
17915;SDS011;9083;49.156;8.982;2023-08-06T05:07:22;1.57;;;1.10;;
17915;SDS011;9083;49.156;8.982;2023-08-06T05:09:49;1.57;;;0.90;;
17915;SDS011;9083;49.156;8.982;2023-08-06T05:12:15;1.27;;;1.20;;
17915;SDS011;9083;49.156;8.982;2023-08-06T05:14:42;1.73;;;1.03;;
17915;SDS011;9083;49.156;8.982;2023-08-06T05:17:08;0.93;;;0.80;;
17915;SDS011;9083;49.156;8.982;2023-08-06T05:19:34;0.90;;;0.90;;
17915;SDS011;9083;49.156;8.982;2023-08-06T05:22:02;1.70;;;0.87;;
17915;SDS011;9083;49.156;8.982;2023-08-06T05:24:29;0.80;;;0.80;;
17915;SDS011;9083;49.156;8.982;2023-08-06T05:26:55;4.30;;;0.90;;
17915;SDS011;9083;49.156;8.982;2023-08-06T05:29:22;3.23;;;0.87;;
17915;SDS011;9083;49.156;8.982;2023-08-06T05:31:48;0.90;;;0.87;;
17915;SDS011;9083;49.156;8.982;2023-08-06T05:34:14;2.00;;;1.23;;
17915;SDS011;9083;49.156;8.982;2023-08-06T05:36:41;3.13;;;1.10;;
17915;SDS011;9083;49.156;8.982;2023-08-06T05:39:09;4.20;;;1.10;;
17915;SDS011;9083;49.156;8.982;2023-08-06T05:41:38;1.77;;;0.90;;
17915;SDS011;9083;49.156;8.982;2023-08-06T05:44:04;1.57;;;0.93;;
17915;SDS011;9083;49.156;8.982;2023-08-06T05:46:31;2.50;;;0.90;;
17915;SDS011;9083;49.156;8.982;2023-08-06T05:48:57;1.47;;;0.83;;
17915;SDS011;9083;49.156;8.982;2023-08-06T05:51:25;1.90;;;1.00;;
17915;SDS011;9083;49.156;8.982;2023-08-06T05:53:51;3.80;;;0.90;;
17915;SDS011;9083;49.156;8.982;2023-08-06T05:56:19;2.37;;;0.80;;
17915;SDS011;9083;49.156;8.982;2023-08-06T05:58:45;2.23;;;0.70;;
17915;SDS011;9083;49.156;8.982;2023-08-06T06:01:12;1.87;;;0.80;;
17915;SDS011;9083;49.156;8.982;2023-08-06T06:03:39;1.13;;;0.80;;
17915;SDS011;9083;49.156;8.982;2023-08-06T06:06:05;1.60;;;0.90;;
17915;SDS011;9083;49.156;8.982;2023-08-06T06:08:31;4.10;;;0.77;;
17915;SDS011;9083;49.156;8.982;2023-08-06T06:10:59;0.70;;;0.70;;
17915;SDS011;9083;49.156;8.982;2023-08-06T06:13:26;0.60;;;0.60;;
17915;SDS011;9083;49.156;8.982;2023-08-06T06:15:54;2.67;;;0.90;;
17915;SDS011;9083;49.156;8.982;2023-08-06T06:18:20;2.10;;;0.90;;
17915;SDS011;9083;49.156;8.982;2023-08-06T06:20:46;1.67;;;0.60;;
17915;SDS011;9083;49.156;8.982;2023-08-06T06:23:13;0.90;;;0.90;;
17915;SDS011;9083;49.156;8.982;2023-08-06T06:25:41;1.83;;;0.73;;
17915;SDS011;9083;49.156;8.982;2023-08-06T06:28:08;3.20;;;0.97;;
17915;SDS011;9083;49.156;8.982;2023-08-06T06:30:36;0.60;;;0.60;;
17915;SDS011;9083;49.156;8.982;2023-08-06T06:33:02;3.40;;;0.70;;
17915;SDS011;9083;49.156;8.982;2023-08-06T06:35:29;1.90;;;0.70;;
17915;SDS011;9083;49.156;8.982;2023-08-06T06:37:55;0.70;;;0.70;;
17915;SDS011;9083;49.156;8.982;2023-08-06T06:40:22;0.63;;;0.60;;
17915;SDS011;9083;49.156;8.982;2023-08-06T06:42:48;0.57;;;0.50;;
17915;SDS011;9083;49.156;8.982;2023-08-06T06:45:15;1.90;;;0.90;;
17915;SDS011;9083;49.156;8.982;2023-08-06T06:47:42;2.10;;;0.50;;
17915;SDS011;9083;49.156;8.982;2023-08-06T06:50:09;0.67;;;0.60;;
17915;SDS011;9083;49.156;8.982;2023-08-06T06:52:35;0.60;;;0.60;;
17915;SDS011;9083;49.156;8.982;2023-08-06T06:55:02;0.93;;;0.50;;
17915;SDS011;9083;49.156;8.982;2023-08-06T06:57:28;0.60;;;0.60;;
17915;SDS011;9083;49.156;8.982;2023-08-06T06:59:55;0.37;;;0.37;;
17915;SDS011;9083;49.156;8.982;2023-08-06T07:02:21;1.23;;;0.50;;
17915;SDS011;9083;49.156;8.982;2023-08-06T07:04:49;0.60;;;0.60;;
17915;SDS011;9083;49.156;8.982;2023-08-06T07:07:15;0.60;;;0.60;;
17915;SDS011;9083;49.156;8.982;2023-08-06T07:09:42;0.30;;;0.30;;
17915;SDS011;9083;49.156;8.982;2023-08-06T07:12:08;0.67;;;0.60;;
17915;SDS011;9083;49.156;8.982;2023-08-06T07:14:35;1.57;;;0.50;;
17915;SDS011;9083;49.156;8.982;2023-08-06T07:17:01;2.90;;;1.00;;
17915;SDS011;9083;49.156;8.982;2023-08-06T07:19:27;0.50;;;0.50;;
17915;SDS011;9083;49.156;8.982;2023-08-06T07:21:55;1.40;;;0.50;;
17915;SDS011;9083;49.156;8.982;2023-08-06T07:24:22;1.47;;;0.97;;
17915;SDS011;9083;49.156;8.982;2023-08-06T07:26:48;0.50;;;0.50;;
17915;SDS011;9083;49.156;8.982;2023-08-06T07:29:14;0.50;;;0.50;;
17915;SDS011;9083;49.156;8.982;2023-08-06T07:31:44;1.87;;;0.50;;
17915;SDS011;9083;49.156;8.982;2023-08-06T07:34:11;0.40;;;0.40;;
17915;SDS011;9083;49.156;8.982;2023-08-06T07:36:37;2.07;;;0.50;;
17915;SDS011;9083;49.156;8.982;2023-08-06T07:39:05;0.43;;;0.30;;
17915;SDS011;9083;49.156;8.982;2023-08-06T07:41:33;1.60;;;0.50;;
17915;SDS011;9083;49.156;8.982;2023-08-06T07:44:01;0.80;;;0.40;;
17915;SDS011;9083;49.156;8.982;2023-08-06T07:46:27;0.53;;;0.53;;
17915;SDS011;9083;49.156;8.982;2023-08-06T07:48:53;0.97;;;0.57;;
17915;SDS011;9083;49.156;8.982;2023-08-06T07:51:20;0.43;;;0.43;;
17915;SDS011;9083;49.156;8.982;2023-08-06T07:53:46;0.40;;;0.40;;
17915;SDS011;9083;49.156;8.982;2023-08-06T07:56:14;0.83;;;0.30;;
17915;SDS011;9083;49.156;8.982;2023-08-06T07:58:41;0.73;;;0.30;;
17915;SDS011;9083;49.156;8.982;2023-08-06T08:01:07;0.97;;;0.50;;
17915;SDS011;9083;49.156;8.982;2023-08-06T08:03:34;0.70;;;0.50;;
17915;SDS011;9083;49.156;8.982;2023-08-06T08:06:00;0.53;;;0.40;;
17915;SDS011;9083;49.156;8.982;2023-08-06T08:08:27;2.13;;;0.50;;
17915;SDS011;9083;49.156;8.982;2023-08-06T08:10:53;1.00;;;0.50;;
17915;SDS011;9083;49.156;8.982;2023-08-06T08:13:21;0.67;;;0.67;;
17915;SDS011;9083;49.156;8.982;2023-08-06T08:15:48;0.53;;;0.53;;
17915;SDS011;9083;49.156;8.982;2023-08-06T08:18:14;0.60;;;0.60;;
17915;SDS011;9083;49.156;8.982;2023-08-06T08:20:40;6.83;;;0.80;;
17915;SDS011;9083;49.156;8.982;2023-08-06T08:23:07;0.50;;;0.50;;
17915;SDS011;9083;49.156;8.982;2023-08-06T08:25:33;0.40;;;0.40;;
17915;SDS011;9083;49.156;8.982;2023-08-06T08:28:00;1.60;;;0.50;;
17915;SDS011;9083;49.156;8.982;2023-08-06T08:30:28;0.60;;;0.60;;
17915;SDS011;9083;49.156;8.982;2023-08-06T08:32:54;12.67;;;6.93;;
17915;SDS011;9083;49.156;8.982;2023-08-06T08:35:20;2.60;;;1.10;;
17915;SDS011;9083;49.156;8.982;2023-08-06T08:37:47;0.40;;;0.40;;
17915;SDS011;9083;49.156;8.982;2023-08-06T08:40:14;0.30;;;0.30;;
17915;SDS011;9083;49.156;8.982;2023-08-06T08:42:40;0.50;;;0.50;;
17915;SDS011;9083;49.156;8.982;2023-08-06T08:45:10;0.40;;;0.40;;
17915;SDS011;9083;49.156;8.982;2023-08-06T08:47:38;0.47;;;0.47;;
17915;SDS011;9083;49.156;8.982;2023-08-06T08:50:06;0.40;;;0.40;;
17915;SDS011;9083;49.156;8.982;2023-08-06T08:52:34;0.30;;;0.30;;
17915;SDS011;9083;49.156;8.982;2023-08-06T08:55:01;0.40;;;0.40;;
17915;SDS011;9083;49.156;8.982;2023-08-06T08:57:28;2.77;;;0.33;;
17915;SDS011;9083;49.156;8.982;2023-08-06T08:59:54;0.50;;;0.50;;
17915;SDS011;9083;49.156;8.982;2023-08-06T09:02:21;0.97;;;0.50;;
17915;SDS011;9083;49.156;8.982;2023-08-06T09:04:50;1.53;;;1.50;;
17915;SDS011;9083;49.156;8.982;2023-08-06T09:07:18;1.20;;;0.93;;
17915;SDS011;9083;49.156;8.982;2023-08-06T09:09:44;0.30;;;0.30;;
17915;SDS011;9083;49.156;8.982;2023-08-06T09:12:14;1.43;;;0.60;;
17915;SDS011;9083;49.156;8.982;2023-08-06T09:14:40;0.30;;;0.30;;
17915;SDS011;9083;49.156;8.982;2023-08-06T09:17:07;3.93;;;0.80;;
17915;SDS011;9083;49.156;8.982;2023-08-06T09:19:35;0.97;;;0.40;;
17915;SDS011;9083;49.156;8.982;2023-08-06T09:22:03;0.40;;;0.40;;
17915;SDS011;9083;49.156;8.982;2023-08-06T09:24:37;0.30;;;0.30;;
17915;SDS011;9083;49.156;8.982;2023-08-06T09:27:04;0.50;;;0.50;;
17915;SDS011;9083;49.156;8.982;2023-08-06T09:29:30;0.53;;;0.40;;
17915;SDS011;9083;49.156;8.982;2023-08-06T09:31:57;1.43;;;0.40;;
17915;SDS011;9083;49.156;8.982;2023-08-06T09:34:23;0.97;;;0.40;;
17915;SDS011;9083;49.156;8.982;2023-08-06T09:36:50;0.40;;;0.40;;
17915;SDS011;9083;49.156;8.982;2023-08-06T09:39:20;0.97;;;0.70;;
17915;SDS011;9083;49.156;8.982;2023-08-06T09:41:47;0.50;;;0.50;;
17915;SDS011;9083;49.156;8.982;2023-08-06T09:44:17;0.87;;;0.60;;
17915;SDS011;9083;49.156;8.982;2023-08-06T09:46:46;1.70;;;0.50;;
17915;SDS011;9083;49.156;8.982;2023-08-06T09:49:13;0.50;;;0.50;;
17915;SDS011;9083;49.156;8.982;2023-08-06T09:51:39;0.50;;;0.30;;
17915;SDS011;9083;49.156;8.982;2023-08-06T09:54:06;0.83;;;0.57;;
17915;SDS011;9083;49.156;8.982;2023-08-06T09:56:35;0.80;;;0.40;;
17915;SDS011;9083;49.156;8.982;2023-08-06T09:59:03;0.83;;;0.30;;
17915;SDS011;9083;49.156;8.982;2023-08-06T10:01:30;0.33;;;0.33;;
17915;SDS011;9083;49.156;8.982;2023-08-06T10:03:58;3.60;;;0.70;;
17915;SDS011;9083;49.156;8.982;2023-08-06T10:06:25;0.33;;;0.33;;
17915;SDS011;9083;49.156;8.982;2023-08-06T10:08:52;1.27;;;1.17;;
17915;SDS011;9083;49.156;8.982;2023-08-06T10:11:19;0.30;;;0.30;;
17915;SDS011;9083;49.156;8.982;2023-08-06T10:13:49;0.30;;;0.30;;
17915;SDS011;9083;49.156;8.982;2023-08-06T10:16:16;0.47;;;0.47;;
17915;SDS011;9083;49.156;8.982;2023-08-06T10:18:42;0.47;;;0.30;;
17915;SDS011;9083;49.156;8.982;2023-08-06T10:21:09;0.40;;;0.40;;
17915;SDS011;9083;49.156;8.982;2023-08-06T10:23:36;0.40;;;0.40;;
17915;SDS011;9083;49.156;8.982;2023-08-06T10:26:03;0.30;;;0.30;;
17915;SDS011;9083;49.156;8.982;2023-08-06T10:28:36;0.30;;;0.30;;
17915;SDS011;9083;49.156;8.982;2023-08-06T10:31:04;0.57;;;0.40;;
17915;SDS011;9083;49.156;8.982;2023-08-06T10:33:40;0.40;;;0.40;;
17915;SDS011;9083;49.156;8.982;2023-08-06T10:36:08;0.50;;;0.50;;
17915;SDS011;9083;49.156;8.982;2023-08-06T10:38:35;0.43;;;0.43;;
17915;SDS011;9083;49.156;8.982;2023-08-06T10:41:09;0.57;;;0.57;;
17915;SDS011;9083;49.156;8.982;2023-08-06T10:43:41;0.80;;;0.80;;
17915;SDS011;9083;49.156;8.982;2023-08-06T10:46:13;0.70;;;0.70;;
17915;SDS011;9083;49.156;8.982;2023-08-06T10:48:46;0.60;;;0.60;;
17915;SDS011;9083;49.156;8.982;2023-08-06T10:51:13;0.70;;;0.60;;
17915;SDS011;9083;49.156;8.982;2023-08-06T10:53:41;1.00;;;0.73;;
17915;SDS011;9083;49.156;8.982;2023-08-06T10:56:11;0.30;;;0.30;;
17915;SDS011;9083;49.156;8.982;2023-08-06T10:58:38;0.73;;;0.40;;
17915;SDS011;9083;49.156;8.982;2023-08-06T11:01:04;0.57;;;0.57;;
17915;SDS011;9083;49.156;8.982;2023-08-06T11:03:32;1.00;;;0.60;;
17915;SDS011;9083;49.156;8.982;2023-08-06T11:05:59;0.53;;;0.53;;
17915;SDS011;9083;49.156;8.982;2023-08-06T11:08:25;0.50;;;0.50;;
17915;SDS011;9083;49.156;8.982;2023-08-06T11:10:52;1.27;;;0.60;;
17915;SDS011;9083;49.156;8.982;2023-08-06T11:13:19;0.70;;;0.70;;
17915;SDS011;9083;49.156;8.982;2023-08-06T11:15:45;0.77;;;0.77;;
17915;SDS011;9083;49.156;8.982;2023-08-06T11:18:12;2.20;;;2.00;;
17915;SDS011;9083;49.156;8.982;2023-08-06T11:20:39;0.83;;;0.83;;
17915;SDS011;9083;49.156;8.982;2023-08-06T11:23:06;2.23;;;0.77;;
17915;SDS011;9083;49.156;8.982;2023-08-06T11:25:36;0.70;;;0.70;;
17915;SDS011;9083;49.156;8.982;2023-08-06T11:28:02;1.67;;;1.10;;
17915;SDS011;9083;49.156;8.982;2023-08-06T11:30:29;0.80;;;0.80;;
17915;SDS011;9083;49.156;8.982;2023-08-06T11:32:56;1.90;;;0.90;;
17915;SDS011;9083;49.156;8.982;2023-08-06T11:35:23;1.00;;;1.00;;
17915;SDS011;9083;49.156;8.982;2023-08-06T11:37:50;1.20;;;1.13;;
17915;SDS011;9083;49.156;8.982;2023-08-06T11:40:17;0.77;;;0.77;;
17915;SDS011;9083;49.156;8.982;2023-08-06T11:42:43;1.03;;;0.97;;
17915;SDS011;9083;49.156;8.982;2023-08-06T11:45:10;2.70;;;1.47;;
17915;SDS011;9083;49.156;8.982;2023-08-06T11:47:37;0.90;;;0.90;;
17915;SDS011;9083;49.156;8.982;2023-08-06T11:50:04;1.40;;;0.80;;
17915;SDS011;9083;49.156;8.982;2023-08-06T11:52:31;1.37;;;1.27;;
17915;SDS011;9083;49.156;8.982;2023-08-06T11:55:02;1.27;;;1.27;;
17915;SDS011;9083;49.156;8.982;2023-08-06T11:57:31;3.67;;;1.30;;
17915;SDS011;9083;49.156;8.982;2023-08-06T12:00:03;2.57;;;1.80;;
17915;SDS011;9083;49.156;8.982;2023-08-06T12:02:31;1.37;;;1.30;;
17915;SDS011;9083;49.156;8.982;2023-08-06T12:05:00;1.30;;;1.30;;
17915;SDS011;9083;49.156;8.982;2023-08-06T12:07:27;2.60;;;1.40;;
17915;SDS011;9083;49.156;8.982;2023-08-06T12:09:54;1.43;;;1.33;;
17915;SDS011;9083;49.156;8.982;2023-08-06T12:12:22;2.30;;;1.70;;
17915;SDS011;9083;49.156;8.982;2023-08-06T12:14:48;5.03;;;3.13;;
17915;SDS011;9083;49.156;8.982;2023-08-06T12:17:14;8.97;;;3.17;;
17915;SDS011;9083;49.156;8.982;2023-08-06T12:19:41;1.60;;;1.50;;
17915;SDS011;9083;49.156;8.982;2023-08-06T12:22:07;2.03;;;1.70;;
17915;SDS011;9083;49.156;8.982;2023-08-06T12:24:34;1.70;;;1.60;;
17915;SDS011;9083;49.156;8.982;2023-08-06T12:27:00;1.70;;;1.60;;
17915;SDS011;9083;49.156;8.982;2023-08-06T12:29:29;1.77;;;1.60;;
17915;SDS011;9083;49.156;8.982;2023-08-06T12:31:56;3.67;;;1.83;;
17915;SDS011;9083;49.156;8.982;2023-08-06T12:34:22;1.90;;;1.80;;
17915;SDS011;9083;49.156;8.982;2023-08-06T12:36:49;3.33;;;1.80;;
17915;SDS011;9083;49.156;8.982;2023-08-06T12:39:15;2.47;;;1.93;;
17915;SDS011;9083;49.156;8.982;2023-08-06T12:41:41;1.70;;;1.60;;
17915;SDS011;9083;49.156;8.982;2023-08-06T12:44:11;5.07;;;1.83;;
17915;SDS011;9083;49.156;8.982;2023-08-06T12:46:38;1.97;;;1.77;;
17915;SDS011;9083;49.156;8.982;2023-08-06T12:49:05;3.97;;;1.97;;
17915;SDS011;9083;49.156;8.982;2023-08-06T12:51:31;3.33;;;2.00;;
17915;SDS011;9083;49.156;8.982;2023-08-06T12:53:58;2.10;;;1.37;;
17915;SDS011;9083;49.156;8.982;2023-08-06T12:56:25;4.47;;;1.60;;
17915;SDS011;9083;49.156;8.982;2023-08-06T12:58:51;5.57;;;1.93;;
17915;SDS011;9083;49.156;8.982;2023-08-06T13:01:18;3.10;;;2.03;;
17915;SDS011;9083;49.156;8.982;2023-08-06T13:03:45;2.17;;;1.73;;
17915;SDS011;9083;49.156;8.982;2023-08-06T13:06:12;3.20;;;1.93;;
17915;SDS011;9083;49.156;8.982;2023-08-06T13:08:38;4.30;;;2.13;;
17915;SDS011;9083;49.156;8.982;2023-08-06T13:11:05;1.87;;;1.70;;
17915;SDS011;9083;49.156;8.982;2023-08-06T13:13:31;2.03;;;1.50;;
17915;SDS011;9083;49.156;8.982;2023-08-06T13:15:58;5.13;;;1.87;;
17915;SDS011;9083;49.156;8.982;2023-08-06T13:18:24;3.23;;;2.00;;
17915;SDS011;9083;49.156;8.982;2023-08-06T13:20:54;1.77;;;1.60;;
17915;SDS011;9083;49.156;8.982;2023-08-06T13:23:20;3.77;;;1.90;;
17915;SDS011;9083;49.156;8.982;2023-08-06T13:25:47;2.13;;;1.83;;
17915;SDS011;9083;49.156;8.982;2023-08-06T13:28:13;4.07;;;1.80;;
17915;SDS011;9083;49.156;8.982;2023-08-06T13:30:40;3.80;;;1.73;;
17915;SDS011;9083;49.156;8.982;2023-08-06T13:33:07;3.43;;;1.93;;
17915;SDS011;9083;49.156;8.982;2023-08-06T13:35:35;4.10;;;1.90;;
17915;SDS011;9083;49.156;8.982;2023-08-06T13:38:03;2.90;;;1.37;;
17915;SDS011;9083;49.156;8.982;2023-08-06T13:40:29;3.30;;;1.60;;
17915;SDS011;9083;49.156;8.982;2023-08-06T13:42:56;5.57;;;2.10;;
17915;SDS011;9083;49.156;8.982;2023-08-06T13:45:22;3.67;;;1.40;;
17915;SDS011;9083;49.156;8.982;2023-08-06T13:47:49;1.57;;;1.47;;
17915;SDS011;9083;49.156;8.982;2023-08-06T13:50:15;3.57;;;1.50;;
17915;SDS011;9083;49.156;8.982;2023-08-06T13:52:42;1.50;;;1.40;;
17915;SDS011;9083;49.156;8.982;2023-08-06T13:55:10;3.30;;;1.70;;
17915;SDS011;9083;49.156;8.982;2023-08-06T13:57:36;1.80;;;1.30;;
17915;SDS011;9083;49.156;8.982;2023-08-06T14:00:03;4.20;;;1.30;;
17915;SDS011;9083;49.156;8.982;2023-08-06T14:02:30;2.10;;;1.17;;
17915;SDS011;9083;49.156;8.982;2023-08-06T14:04:57;1.30;;;1.20;;
17915;SDS011;9083;49.156;8.982;2023-08-06T14:07:23;0.97;;;0.97;;
17915;SDS011;9083;49.156;8.982;2023-08-06T14:09:50;0.80;;;0.80;;
17915;SDS011;9083;49.156;8.982;2023-08-06T14:12:17;2.17;;;1.10;;
17915;SDS011;9083;49.156;8.982;2023-08-06T14:14:44;1.63;;;1.37;;
17915;SDS011;9083;49.156;8.982;2023-08-06T14:17:10;1.57;;;1.40;;
17915;SDS011;9083;49.156;8.982;2023-08-06T14:19:37;3.33;;;1.60;;
17915;SDS011;9083;49.156;8.982;2023-08-06T14:22:03;1.73;;;1.30;;
17915;SDS011;9083;49.156;8.982;2023-08-06T14:24:29;5.10;;;0.93;;
17915;SDS011;9083;49.156;8.982;2023-08-06T14:26:56;0.90;;;0.90;;
17915;SDS011;9083;49.156;8.982;2023-08-06T14:29:24;1.43;;;1.33;;
17915;SDS011;9083;49.156;8.982;2023-08-06T14:31:50;1.10;;;1.00;;
17915;SDS011;9083;49.156;8.982;2023-08-06T14:34:17;1.57;;;1.20;;
17915;SDS011;9083;49.156;8.982;2023-08-06T14:36:43;1.07;;;0.97;;
17915;SDS011;9083;49.156;8.982;2023-08-06T14:39:10;0.90;;;0.90;;
17915;SDS011;9083;49.156;8.982;2023-08-06T14:41:36;1.00;;;1.00;;
17915;SDS011;9083;49.156;8.982;2023-08-06T14:44:02;0.90;;;0.90;;
17915;SDS011;9083;49.156;8.982;2023-08-06T14:46:30;0.87;;;0.80;;
17915;SDS011;9083;49.156;8.982;2023-08-06T14:48:57;1.00;;;1.00;;
17915;SDS011;9083;49.156;8.982;2023-08-06T14:51:23;1.23;;;1.10;;
17915;SDS011;9083;49.156;8.982;2023-08-06T14:53:49;1.30;;;1.20;;
17915;SDS011;9083;49.156;8.982;2023-08-06T14:56:16;1.10;;;1.10;;
17915;SDS011;9083;49.156;8.982;2023-08-06T14:58:42;1.60;;;1.13;;